sensor_id;sensor_type;location;lat;lon;timestamp;temperature;humidity
23445;DHT22;11895;48.738;9.320;2022-07-29T00:01:40;19.90;99.90
23445;DHT22;11895;48.738;9.320;2022-07-29T00:04:09;20.00;99.90
23445;DHT22;11895;48.738;9.320;2022-07-29T00:09:08;19.90;99.90
23445;DHT22;11895;48.738;9.320;2022-07-29T00:11:35;19.80;99.90
23445;DHT22;11895;48.738;9.320;2022-07-29T00:14:02;19.90;99.90
23445;DHT22;11895;48.738;9.320;2022-07-29T00:18:57;19.90;99.90
23445;DHT22;11895;48.738;9.320;2022-07-29T00:21:28;19.90;99.90
23445;DHT22;11895;48.738;9.320;2022-07-29T00:23:56;19.90;99.90
23445;DHT22;11895;48.738;9.320;2022-07-29T00:26:28;19.90;99.90
23445;DHT22;11895;48.738;9.320;2022-07-29T00:29:07;19.90;99.90
23445;DHT22;11895;48.738;9.320;2022-07-29T00:31:54;19.80;99.90
23445;DHT22;11895;48.738;9.320;2022-07-29T00:34:21;19.80;99.90
23445;DHT22;11895;48.738;9.320;2022-07-29T00:37:07;19.70;99.90
23445;DHT22;11895;48.738;9.320;2022-07-29T00:39:34;19.60;99.90
23445;DHT22;11895;48.738;9.320;2022-07-29T00:42:02;19.60;99.90
23445;DHT22;11895;48.738;9.320;2022-07-29T00:44:35;19.50;99.90
23445;DHT22;11895;48.738;9.320;2022-07-29T00:47:07;19.50;99.90
23445;DHT22;11895;48.738;9.320;2022-07-29T00:49:39;19.40;99.90
23445;DHT22;11895;48.738;9.320;2022-07-29T00:52:08;19.50;99.90
23445;DHT22;11895;48.738;9.320;2022-07-29T00:54:37;19.50;99.90
23445;DHT22;11895;48.738;9.320;2022-07-29T00:57:13;19.50;99.90
23445;DHT22;11895;48.738;9.320;2022-07-29T00:59:41;19.70;99.90
23445;DHT22;11895;48.738;9.320;2022-07-29T01:02:11;19.50;99.90
23445;DHT22;11895;48.738;9.320;2022-07-29T01:04:38;19.40;99.90
23445;DHT22;11895;48.738;9.320;2022-07-29T01:07:06;19.30;99.90
23445;DHT22;11895;48.738;9.320;2022-07-29T01:09:34;19.20;99.90
23445;DHT22;11895;48.738;9.320;2022-07-29T01:12:13;19.20;99.90
23445;DHT22;11895;48.738;9.320;2022-07-29T01:14:46;19.20;99.90
23445;DHT22;11895;48.738;9.320;2022-07-29T01:18:18;19.20;99.90
23445;DHT22;11895;48.738;9.320;2022-07-29T01:20:24;19.20;99.90
23445;DHT22;11895;48.738;9.320;2022-07-29T01:37:00;19.00;99.90
23445;DHT22;11895;48.738;9.320;2022-07-29T01:43:44;19.00;99.90
23445;DHT22;11895;48.738;9.320;2022-07-29T01:49:35;19.10;99.90
23445;DHT22;11895;48.738;9.320;2022-07-29T01:52:09;19.00;99.90
23445;DHT22;11895;48.738;9.320;2022-07-29T01:54:51;19.00;99.90
23445;DHT22;11895;48.738;9.320;2022-07-29T02:00:47;18.80;99.90
23445;DHT22;11895;48.738;9.320;2022-07-29T02:03:18;18.80;99.90
23445;DHT22;11895;48.738;9.320;2022-07-29T02:10:06;18.70;99.90
23445;DHT22;11895;48.738;9.320;2022-07-29T02:12:51;18.80;99.90
23445;DHT22;11895;48.738;9.320;2022-07-29T02:22:09;18.90;99.90
23445;DHT22;11895;48.738;9.320;2022-07-29T02:24:41;18.90;99.90
23445;DHT22;11895;48.738;9.320;2022-07-29T02:27:10;18.80;99.90
23445;DHT22;11895;48.738;9.320;2022-07-29T02:29:38;18.80;99.90
23445;DHT22;11895;48.738;9.320;2022-07-29T02:32:06;18.70;99.90
23445;DHT22;11895;48.738;9.320;2022-07-29T02:34:36;18.60;99.90
23445;DHT22;11895;48.738;9.320;2022-07-29T02:37:05;18.50;99.90
23445;DHT22;11895;48.738;9.320;2022-07-29T02:39:37;18.40;99.90
23445;DHT22;11895;48.738;9.320;2022-07-29T02:42:08;18.40;99.90
23445;DHT22;11895;48.738;9.320;2022-07-29T02:44:39;18.40;99.90
23445;DHT22;11895;48.738;9.320;2022-07-29T02:52:37;18.30;99.90
23445;DHT22;11895;48.738;9.320;2022-07-29T02:55:15;18.30;99.90
23445;DHT22;11895;48.738;9.320;2022-07-29T02:58:00;18.50;99.90
23445;DHT22;11895;48.738;9.320;2022-07-29T03:00:58;18.50;99.90
23445;DHT22;11895;48.738;9.320;2022-07-29T03:03:31;18.50;99.90
23445;DHT22;11895;48.738;9.320;2022-07-29T03:06:03;18.40;99.90
23445;DHT22;11895;48.738;9.320;2022-07-29T03:08:32;18.40;99.90
23445;DHT22;11895;48.738;9.320;2022-07-29T03:11:01;18.30;99.90
23445;DHT22;11895;48.738;9.320;2022-07-29T03:13:33;18.40;99.90
23445;DHT22;11895;48.738;9.320;2022-07-29T03:16:04;18.40;99.90
23445;DHT22;11895;48.738;9.320;2022-07-29T03:18:32;18.40;99.90
23445;DHT22;11895;48.738;9.320;2022-07-29T03:21:02;18.30;99.90
23445;DHT22;11895;48.738;9.320;2022-07-29T03:23:30;18.40;99.90
23445;DHT22;11895;48.738;9.320;2022-07-29T03:26:02;18.50;99.90
23445;DHT22;11895;48.738;9.320;2022-07-29T03:28:29;18.40;99.90
23445;DHT22;11895;48.738;9.320;2022-07-29T03:30:57;18.40;99.90
23445;DHT22;11895;48.738;9.320;2022-07-29T03:33:24;18.30;99.90
23445;DHT22;11895;48.738;9.320;2022-07-29T03:35:51;18.30;99.90
23445;DHT22;11895;48.738;9.320;2022-07-29T03:38:18;18.40;99.90
23445;DHT22;11895;48.738;9.320;2022-07-29T03:40:52;18.60;99.90
23445;DHT22;11895;48.738;9.320;2022-07-29T03:43:24;18.50;99.90
23445;DHT22;11895;48.738;9.320;2022-07-29T03:45:55;18.40;99.90
23445;DHT22;11895;48.738;9.320;2022-07-29T03:48:25;18.40;99.90
23445;DHT22;11895;48.738;9.320;2022-07-29T03:50:55;18.50;99.90
23445;DHT22;11895;48.738;9.320;2022-07-29T03:53:24;18.50;99.90
23445;DHT22;11895;48.738;9.320;2022-07-29T03:55:53;18.40;99.90
23445;DHT22;11895;48.738;9.320;2022-07-29T03:58:26;18.40;99.90
23445;DHT22;11895;48.738;9.320;2022-07-29T04:00:57;18.40;99.90
23445;DHT22;11895;48.738;9.320;2022-07-29T04:03:25;18.40;99.90
23445;DHT22;11895;48.738;9.320;2022-07-29T04:06:03;18.40;99.90
23445;DHT22;11895;48.738;9.320;2022-07-29T04:08:33;18.70;99.90
23445;DHT22;11895;48.738;9.320;2022-07-29T04:11:01;18.70;99.90
23445;DHT22;11895;48.738;9.320;2022-07-29T04:13:29;18.50;99.90
23445;DHT22;11895;48.738;9.320;2022-07-29T04:15:59;18.40;99.90
23445;DHT22;11895;48.738;9.320;2022-07-29T04:18:27;18.40;99.90
23445;DHT22;11895;48.738;9.320;2022-07-29T04:20:54;18.50;99.90
23445;DHT22;11895;48.738;9.320;2022-07-29T04:23:25;18.50;99.90
23445;DHT22;11895;48.738;9.320;2022-07-29T04:25:53;18.50;99.90
23445;DHT22;11895;48.738;9.320;2022-07-29T04:28:20;18.50;99.90
23445;DHT22;11895;48.738;9.320;2022-07-29T04:30:47;18.50;99.90
23445;DHT22;11895;48.738;9.320;2022-07-29T04:33:17;18.40;99.90
23445;DHT22;11895;48.738;9.320;2022-07-29T04:35:53;18.50;99.90
23445;DHT22;11895;48.738;9.320;2022-07-29T04:38:21;18.60;99.90
23445;DHT22;11895;48.738;9.320;2022-07-29T04:40:48;18.70;99.90
23445;DHT22;11895;48.738;9.320;2022-07-29T04:43:15;18.80;99.90
23445;DHT22;11895;48.738;9.320;2022-07-29T04:45:49;18.90;99.90
23445;DHT22;11895;48.738;9.320;2022-07-29T04:48:16;19.00;99.90
23445;DHT22;11895;48.738;9.320;2022-07-29T04:50:43;18.90;99.90
23445;DHT22;11895;48.738;9.320;2022-07-29T04:53:10;19.00;99.90
23445;DHT22;11895;48.738;9.320;2022-07-29T04:55:37;19.00;99.90
23445;DHT22;11895;48.738;9.320;2022-07-29T04:58:04;19.10;99.90
23445;DHT22;11895;48.738;9.320;2022-07-29T05:00:34;19.00;99.90
23445;DHT22;11895;48.738;9.320;2022-07-29T05:03:02;19.00;99.90
23445;DHT22;11895;48.738;9.320;2022-07-29T05:05:30;18.90;99.90
23445;DHT22;11895;48.738;9.320;2022-07-29T05:07:58;19.00;99.90
23445;DHT22;11895;48.738;9.320;2022-07-29T05:10:25;19.00;99.90
23445;DHT22;11895;48.738;9.320;2022-07-29T05:12:52;19.00;99.90
23445;DHT22;11895;48.738;9.320;2022-07-29T05:15:19;19.20;99.90
23445;DHT22;11895;48.738;9.320;2022-07-29T05:17:47;19.30;99.90
23445;DHT22;11895;48.738;9.320;2022-07-29T05:20:16;19.40;99.90
23445;DHT22;11895;48.738;9.320;2022-07-29T05:22:45;19.40;99.90
23445;DHT22;11895;48.738;9.320;2022-07-29T05:25:13;19.50;99.90
23445;DHT22;11895;48.738;9.320;2022-07-29T05:27:46;19.60;99.90
23445;DHT22;11895;48.738;9.320;2022-07-29T05:30:16;19.70;99.90
23445;DHT22;11895;48.738;9.320;2022-07-29T05:32:44;19.70;99.90
23445;DHT22;11895;48.738;9.320;2022-07-29T05:35:12;19.90;99.90
23445;DHT22;11895;48.738;9.320;2022-07-29T05:37:40;20.10;99.90
23445;DHT22;11895;48.738;9.320;2022-07-29T05:40:08;20.20;99.90
23445;DHT22;11895;48.738;9.320;2022-07-29T05:42:35;20.10;99.90
23445;DHT22;11895;48.738;9.320;2022-07-29T05:45:03;20.20;99.90
23445;DHT22;11895;48.738;9.320;2022-07-29T05:47:32;20.30;99.90
23445;DHT22;11895;48.738;9.320;2022-07-29T05:50:00;20.40;99.90
23445;DHT22;11895;48.738;9.320;2022-07-29T05:52:27;20.60;99.90
23445;DHT22;11895;48.738;9.320;2022-07-29T05:54:54;20.60;99.90
23445;DHT22;11895;48.738;9.320;2022-07-29T05:57:23;20.80;99.90
23445;DHT22;11895;48.738;9.320;2022-07-29T05:59:51;20.80;99.90
23445;DHT22;11895;48.738;9.320;2022-07-29T06:02:18;20.70;99.90
23445;DHT22;11895;48.738;9.320;2022-07-29T06:04:45;20.80;99.90
23445;DHT22;11895;48.738;9.320;2022-07-29T06:07:12;20.80;99.90
23445;DHT22;11895;48.738;9.320;2022-07-29T06:09:39;20.90;99.90
23445;DHT22;11895;48.738;9.320;2022-07-29T06:12:07;20.90;99.90
23445;DHT22;11895;48.738;9.320;2022-07-29T06:14:35;20.90;99.90
23445;DHT22;11895;48.738;9.320;2022-07-29T06:17:02;21.00;99.90
23445;DHT22;11895;48.738;9.320;2022-07-29T06:19:29;21.00;99.90
23445;DHT22;11895;48.738;9.320;2022-07-29T06:21:57;21.00;99.90
23445;DHT22;11895;48.738;9.320;2022-07-29T06:24:24;21.10;99.90
23445;DHT22;11895;48.738;9.320;2022-07-29T06:26:57;21.30;99.90
23445;DHT22;11895;48.738;9.320;2022-07-29T06:29:24;21.30;99.90
23445;DHT22;11895;48.738;9.320;2022-07-29T06:31:51;21.60;99.90
23445;DHT22;11895;48.738;9.320;2022-07-29T06:34:18;21.70;99.90
23445;DHT22;11895;48.738;9.320;2022-07-29T06:36:46;21.90;99.90
23445;DHT22;11895;48.738;9.320;2022-07-29T06:39:14;22.10;99.90
23445;DHT22;11895;48.738;9.320;2022-07-29T06:41:41;22.40;99.90
23445;DHT22;11895;48.738;9.320;2022-07-29T06:44:12;22.60;99.90
23445;DHT22;11895;48.738;9.320;2022-07-29T06:46:41;22.70;99.90
23445;DHT22;11895;48.738;9.320;2022-07-29T06:49:08;22.80;99.90
23445;DHT22;11895;48.738;9.320;2022-07-29T06:51:35;23.10;99.90
23445;DHT22;11895;48.738;9.320;2022-07-29T06:54:07;23.30;99.90
23445;DHT22;11895;48.738;9.320;2022-07-29T06:56:34;23.40;99.90
23445;DHT22;11895;48.738;9.320;2022-07-29T06:59:07;23.50;99.90
23445;DHT22;11895;48.738;9.320;2022-07-29T07:01:42;23.70;99.90
23445;DHT22;11895;48.738;9.320;2022-07-29T07:04:10;23.80;99.90
23445;DHT22;11895;48.738;9.320;2022-07-29T07:06:38;23.90;99.90
23445;DHT22;11895;48.738;9.320;2022-07-29T07:09:05;24.00;99.90
23445;DHT22;11895;48.738;9.320;2022-07-29T07:11:33;24.00;99.90
23445;DHT22;11895;48.738;9.320;2022-07-29T07:14:00;24.10;99.90
23445;DHT22;11895;48.738;9.320;2022-07-29T07:16:30;24.10;99.90
23445;DHT22;11895;48.738;9.320;2022-07-29T07:18:59;24.20;99.90
23445;DHT22;11895;48.738;9.320;2022-07-29T07:21:26;24.10;99.90
23445;DHT22;11895;48.738;9.320;2022-07-29T07:23:56;24.20;99.90
23445;DHT22;11895;48.738;9.320;2022-07-29T07:26:23;24.20;99.90
23445;DHT22;11895;48.738;9.320;2022-07-29T07:28:50;24.30;99.90
23445;DHT22;11895;48.738;9.320;2022-07-29T07:31:18;24.50;99.90
23445;DHT22;11895;48.738;9.320;2022-07-29T07:33:45;24.70;99.90
23445;DHT22;11895;48.738;9.320;2022-07-29T07:36:12;24.90;99.90
23445;DHT22;11895;48.738;9.320;2022-07-29T07:38:39;24.70;99.90
23445;DHT22;11895;48.738;9.320;2022-07-29T07:41:09;24.70;99.90
23445;DHT22;11895;48.738;9.320;2022-07-29T07:43:36;24.70;99.90
23445;DHT22;11895;48.738;9.320;2022-07-29T07:46:15;24.70;99.90
23445;DHT22;11895;48.738;9.320;2022-07-29T07:48:43;24.60;99.90
23445;DHT22;11895;48.738;9.320;2022-07-29T07:51:10;24.60;99.90
23445;DHT22;11895;48.738;9.320;2022-07-29T07:53:38;24.70;99.90
23445;DHT22;11895;48.738;9.320;2022-07-29T07:56:05;24.90;99.90
23445;DHT22;11895;48.738;9.320;2022-07-29T07:58:38;25.00;99.90
23445;DHT22;11895;48.738;9.320;2022-07-29T08:01:11;25.20;99.90
23445;DHT22;11895;48.738;9.320;2022-07-29T08:03:38;25.30;99.90
23445;DHT22;11895;48.738;9.320;2022-07-29T08:06:08;25.50;99.90
23445;DHT22;11895;48.738;9.320;2022-07-29T08:08:35;25.50;99.90
23445;DHT22;11895;48.738;9.320;2022-07-29T08:11:02;25.50;99.90
23445;DHT22;11895;48.738;9.320;2022-07-29T08:13:35;25.40;99.90
23445;DHT22;11895;48.738;9.320;2022-07-29T08:16:05;25.50;99.90
23445;DHT22;11895;48.738;9.320;2022-07-29T08:18:42;25.50;99.90
23445;DHT22;11895;48.738;9.320;2022-07-29T08:21:14;25.70;99.90
23445;DHT22;11895;48.738;9.320;2022-07-29T08:23:45;25.90;99.90
23445;DHT22;11895;48.738;9.320;2022-07-29T08:26:24;25.90;99.90
23445;DHT22;11895;48.738;9.320;2022-07-29T08:28:51;26.00;99.90
23445;DHT22;11895;48.738;9.320;2022-07-29T08:31:19;26.00;99.90
23445;DHT22;11895;48.738;9.320;2022-07-29T08:33:46;26.10;99.90
23445;DHT22;11895;48.738;9.320;2022-07-29T08:36:16;26.20;99.90
23445;DHT22;11895;48.738;9.320;2022-07-29T08:38:43;26.30;99.90
23445;DHT22;11895;48.738;9.320;2022-07-29T08:41:10;26.60;99.90
23445;DHT22;11895;48.738;9.320;2022-07-29T08:43:39;26.80;99.90
23445;DHT22;11895;48.738;9.320;2022-07-29T08:46:07;26.90;99.90
23445;DHT22;11895;48.738;9.320;2022-07-29T08:48:34;27.10;99.90
23445;DHT22;11895;48.738;9.320;2022-07-29T08:51:03;27.20;99.90
23445;DHT22;11895;48.738;9.320;2022-07-29T08:53:31;27.40;99.90
23445;DHT22;11895;48.738;9.320;2022-07-29T08:55:59;27.40;99.90
23445;DHT22;11895;48.738;9.320;2022-07-29T08:58:31;27.40;99.90
23445;DHT22;11895;48.738;9.320;2022-07-29T09:01:03;27.50;99.90
23445;DHT22;11895;48.738;9.320;2022-07-29T09:03:38;27.50;99.90
23445;DHT22;11895;48.738;9.320;2022-07-29T09:06:07;27.50;99.90
23445;DHT22;11895;48.738;9.320;2022-07-29T09:08:40;27.40;99.90
23445;DHT22;11895;48.738;9.320;2022-07-29T09:11:09;27.10;99.90
23445;DHT22;11895;48.738;9.320;2022-07-29T09:13:38;27.20;99.90
23445;DHT22;11895;48.738;9.320;2022-07-29T09:16:10;27.10;99.90
23445;DHT22;11895;48.738;9.320;2022-07-29T09:18:39;27.30;99.90
23445;DHT22;11895;48.738;9.320;2022-07-29T09:21:13;27.40;99.90
23445;DHT22;11895;48.738;9.320;2022-07-29T09:24:08;27.40;99.90
23445;DHT22;11895;48.738;9.320;2022-07-29T09:26:40;27.50;99.90
23445;DHT22;11895;48.738;9.320;2022-07-29T09:31:44;27.80;99.90
23445;DHT22;11895;48.738;9.320;2022-07-29T09:34:16;27.90;99.90
23445;DHT22;11895;48.738;9.320;2022-07-29T09:36:50;28.20;99.90
23445;DHT22;11895;48.738;9.320;2022-07-29T09:42:03;28.70;99.90
23445;DHT22;11895;48.738;9.320;2022-07-29T09:44:49;29.00;99.90
23445;DHT22;11895;48.738;9.320;2022-07-29T09:47:17;29.10;99.90
23445;DHT22;11895;48.738;9.320;2022-07-29T09:50:01;29.40;99.90
23445;DHT22;11895;48.738;9.320;2022-07-29T09:52:31;29.70;99.90
23445;DHT22;11895;48.738;9.320;2022-07-29T09:55:05;29.80;99.90
23445;DHT22;11895;48.738;9.320;2022-07-29T09:57:34;29.90;99.90
23445;DHT22;11895;48.738;9.320;2022-07-29T10:00:10;30.10;99.90
23445;DHT22;11895;48.738;9.320;2022-07-29T10:02:45;30.10;99.90
23445;DHT22;11895;48.738;9.320;2022-07-29T10:05:23;30.20;99.90
23445;DHT22;11895;48.738;9.320;2022-07-29T10:08:02;30.30;99.90
23445;DHT22;11895;48.738;9.320;2022-07-29T10:10:32;30.50;99.90
23445;DHT22;11895;48.738;9.320;2022-07-29T10:13:04;30.70;99.90
23445;DHT22;11895;48.738;9.320;2022-07-29T10:15:45;30.90;99.90
23445;DHT22;11895;48.738;9.320;2022-07-29T10:18:13;31.10;99.90
23445;DHT22;11895;48.738;9.320;2022-07-29T10:20:54;31.30;99.90
23445;DHT22;11895;48.738;9.320;2022-07-29T10:23:23;31.30;99.10
23445;DHT22;11895;48.738;9.320;2022-07-29T10:25:50;31.00;99.40
23445;DHT22;11895;48.738;9.320;2022-07-29T10:28:17;31.10;99.60
23445;DHT22;11895;48.738;9.320;2022-07-29T10:30:48;31.40;98.60
23445;DHT22;11895;48.738;9.320;2022-07-29T10:33:25;31.90;98.00
23445;DHT22;11895;48.738;9.320;2022-07-29T10:36:20;32.20;96.80
23445;DHT22;11895;48.738;9.320;2022-07-29T10:46:20;31.60;95.90
23445;DHT22;11895;48.738;9.320;2022-07-29T10:55:40;30.30;96.90
23445;DHT22;11895;48.738;9.320;2022-07-29T11:17:28;28.70;99.60
23445;DHT22;11895;48.738;9.320;2022-07-29T11:27:19;28.10;98.40
23445;DHT22;11895;48.738;9.320;2022-07-29T11:30:12;27.50;99.80
23445;DHT22;11895;48.738;9.320;2022-07-29T11:32:41;26.90;99.90
